Time;durP1;ratioP1;P1;durP2;ratioP2;P2;SDS_P1;SDS_P2;PMS_P1;PMS_P2;Temp;Humidity;BMP_temperature;BMP_pressure;BME280_temperature;BME280_humidity;BME280_pressure;Samples;Min_cycle;Max_cycle;Signal;HPM_P1;HPM_P2
2022/01/20 00:01:36;;;;;;;6.83;4.87;;;;;;;2.43;97.28;97337.59;5054002;28;20173;-64
2022/01/20 00:04:04;;;;;;;5.37;4.47;;;;;;;2.46;96.73;97337.25;5067785;28;20204;-64
2022/01/20 00:28:11;;;;;;;6.63;3.77;;;;;;;2.57;94.84;97343.88;5072467;28;20201;-64
2022/01/20 00:30:48;;;;;;;4.50;4.10;;;;;;;2.64;94.96;97344.06;5071551;28;20891;-64
2022/01/20 00:33:19;;;;;;;4.20;3.80;;;;;;;2.83;94.21;97341.94;5062445;28;20469;-64
2022/01/20 00:38:20;;;;;;;3.37;3.00;;;;;;;2.56;95.71;97339.72;5071093;28;20220;-64
2022/01/20 00:40:46;;;;;;;3.83;3.43;;;;;;;2.61;95.20;97352.97;5073147;28;20188;-64
2022/01/20 00:43:11;;;;;;;3.20;2.90;;;;;;;2.75;94.46;97338.53;5063948;28;20611;-64
2022/01/20 00:45:37;;;;;;;3.53;3.23;;;;;;;2.53;96.02;97342.59;5053300;28;20200;-64
2022/01/20 00:48:02;;;;;;;3.10;2.80;;;;;;;2.51;97.84;97345.34;5053168;28;20208;-65
2022/01/20 00:50:28;;;;;;;3.10;2.80;;;;;;;2.51;97.38;97355.69;5052626;28;20177;-65
2022/01/20 00:52:53;;;;;;;3.57;3.23;;;;;;;2.49;97.20;97357.66;5059360;28;20235;-65
2022/01/20 00:55:19;;;;;;;3.40;3.10;;;;;;;2.57;98.28;97372.34;5063467;28;20300;-65
2022/01/20 00:57:44;;;;;;;3.60;3.30;;;;;;;2.57;98.69;97376.72;5068909;28;20260;-64
2022/01/20 01:00:12;;;;;;;3.80;3.50;;;;;;;2.49;97.23;97382.72;5071179;28;20394;-65
2022/01/20 01:02:38;;;;;;;3.80;3.40;;;;;;;2.59;97.61;97377.38;5042793;28;20391;-65
2022/01/20 01:05:05;;;;;;;3.92;3.63;;;;;;;2.69;98.09;97368.47;5052995;28;20395;-67
2022/01/20 01:10:11;;;;;;;3.40;3.10;;;;;;;2.70;96.15;97375.25;5046624;28;20405;-64
2022/01/20 01:15:22;;;;;;;3.33;3.03;;;;;;;2.69;96.79;97383.19;5064014;28;21017;-65
2022/01/20 01:20:44;;;;;;;3.10;2.90;;;;;;;2.45;97.94;97389.19;5052436;28;20488;-65
2022/01/20 01:23:10;;;;;;;2.90;2.70;;;;;;;2.30;98.94;97383.00;5052001;28;20407;-64
2022/01/20 01:25:36;;;;;;;3.30;3.00;;;;;;;2.26;99.63;97387.69;5051487;28;20862;-65
2022/01/20 01:28:01;;;;;;;3.30;3.00;;;;;;;2.36;100.00;97392.72;5051431;28;20422;-65
2022/01/20 01:33:04;;;;;;;3.53;3.23;;;;;;;2.48;98.96;97381.09;5058311;28;20403;-64
2022/01/20 01:35:29;;;;;;;2.85;2.65;;;;;;;2.47;98.79;97379.47;5067572;28;20388;-64
2022/01/20 01:40:26;;;;;;;3.47;3.17;;;;;;;2.42;100.00;97379.13;5072692;28;20464;-65
2022/01/20 01:42:53;;;;;;;3.10;2.80;;;;;;;2.50;98.85;97377.38;5074918;28;20395;-64
2022/01/20 01:45:26;;;;;;;3.00;2.80;;;;;;;2.56;98.94;97369.94;5056879;28;20452;-65
2022/01/20 01:47:51;;;;;;;2.83;2.63;;;;;;;2.61;99.53;97380.63;5072573;28;20764;-64
2022/01/20 01:50:17;;;;;;;2.88;2.58;;;;;;;2.48;99.41;97379.31;5072941;28;20392;-65
2022/01/20 01:52:43;;;;;;;3.10;2.90;;;;;;;2.57;100.00;97368.94;5074646;28;20799;-65
2022/01/20 01:55:09;;;;;;;2.63;2.42;;;;;;;2.52;99.75;97372.03;5072325;28;20482;-65
2022/01/20 01:57:35;;;;;;;5.40;3.15;;;;;;;2.41;99.77;97369.75;5072296;28;20399;-64
2022/01/20 02:00:02;;;;;;;2.92;2.72;;;;;;;2.41;100.00;97369.75;5073021;28;20871;-64
2022/01/20 02:02:28;;;;;;;3.15;2.92;;;;;;;2.49;100.00;97370.59;5071970;28;20397;-64
2022/01/20 02:04:54;;;;;;;3.00;2.80;;;;;;;2.39;100.00;97356.19;5055337;28;20438;-64
2022/01/20 02:20:58;;;;;;;2.83;2.63;;;;;;;2.46;99.87;97363.13;5029483;28;20396;-64
2022/01/20 02:23:26;;;;;;;2.60;2.40;;;;;;;2.35;100.00;97354.88;5064202;28;20492;-65
2022/01/20 02:25:51;;;;;;;2.80;2.60;;;;;;;2.50;99.40;97348.13;5058165;28;20521;-67
2022/01/20 02:28:17;;;;;;;3.27;2.97;;;;;;;2.63;99.45;97352.78;5074148;28;20415;-64
2022/01/20 02:30:43;;;;;;;2.80;2.60;;;;;;;2.53;99.16;97344.38;5074194;28;20404;-65
2022/01/20 02:33:11;;;;;;;2.90;2.70;;;;;;;2.41;99.98;97347.28;5074413;28;20390;-64
2022/01/20 02:35:41;;;;;;;2.90;2.70;;;;;;;2.45;100.00;97348.56;5073357;28;20495;-64
2022/01/20 02:38:15;;;;;;;2.70;2.50;;;;;;;2.57;99.93;97341.31;5056098;28;20810;-64
2022/01/20 02:45:54;;;;;;;2.63;2.42;;;;;;;2.49;100.00;97356.84;5072972;28;20484;-64
2022/01/20 02:48:20;;;;;;;2.78;2.50;;;;;;;2.45;100.00;97365.91;5044925;28;20478;-64
2022/01/20 02:50:45;;;;;;;2.45;2.25;;;;;;;2.41;100.00;97352.47;5055239;28;20397;-64
2022/01/20 02:53:11;;;;;;;2.60;2.40;;;;;;;2.36;100.00;97356.50;5070094;28;20388;-64
2022/01/20 02:55:36;;;;;;;2.78;2.58;;;;;;;2.40;100.00;97353.44;5054071;28;20758;-64
2022/01/20 02:58:03;;;;;;;2.37;2.27;;;;;;;2.61;100.00;97357.31;5061407;28;20848;-64
2022/01/20 03:00:29;;;;;;;2.28;2.17;;;;;;;2.49;99.84;97362.81;5064502;28;20744;-64
2022/01/20 03:02:56;;;;;;;2.60;2.50;;;;;;;2.50;100.00;97369.63;5071791;28;20392;-64
2022/01/20 03:05:21;;;;;;;2.35;2.15;;;;;;;2.55;100.00;97369.13;5053890;28;20412;-64
2022/01/20 03:07:47;;;;;;;2.40;2.20;;;;;;;2.73;99.88;97364.56;5073128;28;20419;-65
2022/01/20 03:10:12;;;;;;;2.30;2.20;;;;;;;2.58;99.91;97373.97;5063003;28;20404;-64
2022/01/20 03:12:38;;;;;;;2.13;2.03;;;;;;;2.62;100.00;97366.72;5053078;28;20467;-65
2022/01/20 03:15:04;;;;;;;2.10;2.00;;;;;;;2.77;99.23;97363.31;5053400;28;20472;-64
2022/01/20 03:17:30;;;;;;;2.05;1.95;;;;;;;2.67;100.00;97362.66;5057712;28;20399;-64
2022/01/20 03:19:56;;;;;;;2.10;2.00;;;;;;;2.74;99.62;97366.19;5064793;28;20480;-64
2022/01/20 03:22:21;;;;;;;1.90;1.80;;;;;;;2.63;100.00;97378.66;5053582;28;20417;-64
2022/01/20 03:24:46;;;;;;;2.03;1.92;;;;;;;2.71;100.00;97370.91;5053634;28;20861;-64
2022/01/20 03:27:12;;;;;;;2.33;2.20;;;;;;;2.91;98.80;97378.16;5053753;28;20420;-64
2022/01/20 03:29:37;;;;;;;1.90;1.80;;;;;;;2.77;99.53;97380.59;5053326;28;20870;-64
2022/01/20 03:32:03;;;;;;;2.00;1.90;;;;;;;2.89;99.55;97376.72;5053260;28;20397;-64
2022/01/20 03:34:28;;;;;;;2.17;2.00;;;;;;;2.89;99.40;97368.94;5069584;28;20392;-65
2022/01/20 03:36:54;;;;;;;1.90;1.80;;;;;;;2.72;100.00;97370.75;5071360;28;20393;-64
2022/01/20 03:39:20;;;;;;;1.50;1.50;;;;;;;2.70;100.00;97372.69;5072009;28;20876;-64
2022/01/20 03:41:45;;;;;;;2.08;1.88;;;;;;;2.70;100.00;97375.25;5071228;28;20465;-64
2022/01/20 03:44:11;;;;;;;1.80;1.70;;;;;;;2.72;100.00;97362.97;5072670;28;20391;-64
2022/01/20 03:46:37;;;;;;;1.70;1.60;;;;;;;2.76;100.00;97368.63;5070979;28;20487;-64
2022/01/20 03:49:21;;;;;;;1.80;1.70;;;;;;;2.69;100.00;97368.47;5053134;28;20394;-65
2022/01/20 03:51:46;;;;;;;1.90;1.80;;;;;;;2.59;100.00;97369.59;5053109;28;20389;-64
2022/01/20 03:54:12;;;;;;;1.67;1.58;;;;;;;2.81;100.00;97372.34;5054024;28;20386;-64
2022/01/20 03:56:37;;;;;;;1.70;1.60;;;;;;;3.06;100.00;97370.53;5035714;28;20409;-64
2022/01/20 03:59:02;;;;;;;1.90;1.80;;;;;;;2.91;100.00;97360.03;5049497;28;20393;-64
2022/01/20 04:01:28;;;;;;;1.70;1.60;;;;;;;2.86;100.00;97354.53;5053347;28;20385;-64
2022/01/20 04:03:53;;;;;;;1.80;1.70;;;;;;;2.92;100.00;97359.06;5052817;28;20874;-64
2022/01/20 04:06:19;;;;;;;1.80;1.70;;;;;;;2.88;100.00;97370.72;5052689;28;20385;-64
2022/01/20 04:08:46;;;;;;;2.10;2.00;;;;;;;2.86;100.00;97377.03;5071085;28;20915;-64
2022/01/20 04:11:15;;;;;;;1.80;1.70;;;;;;;2.75;100.00;97378.16;5071625;28;20391;-65
2022/01/20 04:13:41;;;;;;;1.90;1.80;;;;;;;2.90;100.00;97373.94;5052083;28;20888;-64
2022/01/20 04:16:14;;;;;;;1.90;1.80;;;;;;;3.04;100.00;97376.84;5071937;28;20391;-64
2022/01/20 04:18:52;;;;;;;2.03;1.92;;;;;;;2.97;100.00;97355.97;5054194;28;20389;-64
2022/01/20 04:21:25;;;;;;;1.98;1.75;;;;;;;3.11;100.00;97370.03;5052302;28;20404;-64
2022/01/20 04:23:51;;;;;;;1.95;1.85;;;;;;;3.01;100.00;97364.25;5063523;28;20396;-64
2022/01/20 04:26:18;;;;;;;2.40;2.20;;;;;;;2.83;100.00;97359.25;5071977;28;20870;-64
2022/01/20 04:28:43;;;;;;;2.17;2.08;;;;;;;2.77;100.00;97357.31;5071406;28;20868;-65
2022/01/20 04:31:09;;;;;;;2.10;2.00;;;;;;;3.02;100.00;97371.81;5071934;28;20392;-64
2022/01/20 04:33:34;;;;;;;2.10;2.00;;;;;;;3.17;100.00;97379.75;5063121;28;20390;-64
2022/01/20 04:36:00;;;;;;;2.40;2.30;;;;;;;3.09;100.00;97370.19;5063974;28;20810;-65
2022/01/20 04:38:26;;;;;;;2.45;2.25;;;;;;;3.15;99.71;97355.78;5068190;28;20561;-64
2022/01/20 04:40:52;;;;;;;2.50;2.30;;;;;;;3.10;100.00;97364.06;5071800;28;20391;-64
2022/01/20 04:43:17;;;;;;;2.40;2.20;;;;;;;2.95;100.00;97363.13;5060136;28;20892;-64
2022/01/20 04:45:50;;;;;;;2.53;2.40;;;;;;;3.12;99.74;97364.69;5052058;28;20408;-64
2022/01/20 04:59:13;;;;;;;2.40;2.20;;;;;;;3.00;100.00;97366.03;5068506;28;20394;-64
2022/01/20 05:01:44;;;;;;;2.30;2.13;;;;;;;2.98;100.00;97356.78;5071483;28;20733;-63
2022/01/20 05:04:09;;;;;;;2.50;2.37;;;;;;;3.07;100.00;97358.38;5071157;28;20413;-63
2022/01/20 05:06:38;;;;;;;2.40;2.30;;;;;;;2.97;100.00;97361.16;5070975;28;20407;-63
2022/01/20 05:09:04;;;;;;;2.60;2.40;;;;;;;2.79;100.00;97363.13;5069609;28;20787;-64
2022/01/20 05:11:29;;;;;;;2.47;2.28;;;;;;;2.87;100.00;97368.28;5056257;28;20397;-64
2022/01/20 05:13:54;;;;;;;2.63;2.43;;;;;;;2.80;100.00;97373.31;5051444;28;20817;-66
2022/01/20 05:16:23;;;;;;;2.90;2.70;;;;;;;2.74;100.00;97365.38;5052064;28;20481;-63
2022/01/20 05:18:49;;;;;;;2.95;2.70;;;;;;;2.81;100.00;97368.94;5060684;28;20389;-64
2022/01/20 05:21:14;;;;;;;2.80;2.60;;;;;;;2.75;100.00;97370.41;5033473;28;20460;-63
2022/01/20 05:23:39;;;;;;;3.20;2.90;;;;;;;2.70;100.00;97370.09;5051645;28;20439;-64
2022/01/20 05:26:05;;;;;;;3.17;2.93;;;;;;;2.78;100.00;97371.88;5051427;28;20401;-64
2022/01/20 05:28:30;;;;;;;3.20;3.00;;;;;;;2.66;100.00;97368.81;5056621;28;20910;-64
2022/01/20 05:30:56;;;;;;;3.60;3.30;;;;;;;2.58;100.00;97381.72;5070836;28;20430;-64
2022/01/20 05:33:21;;;;;;;3.38;3.15;;;;;;;2.76;100.00;97373.81;5071399;28;20375;-63
2022/01/20 05:35:46;;;;;;;3.50;3.00;;;;;;;2.60;100.00;97381.56;5071224;28;20848;-64
2022/01/20 05:38:12;;;;;;;3.53;3.20;;;;;;;2.59;100.00;97372.19;5061288;28;20417;-63
2022/01/20 05:40:38;;;;;;;3.58;2.97;;;;;;;2.54;100.00;97380.44;5071094;28;20456;-63
2022/01/20 05:43:03;;;;;;;3.40;3.10;;;;;;;2.77;100.00;97378.81;5070320;28;20403;-63
2022/01/20 05:45:29;;;;;;;3.80;3.28;;;;;;;2.67;100.00;97377.38;5065431;28;20409;-64
2022/01/20 05:48:07;;;;;;;3.83;3.30;;;;;;;2.72;100.00;97383.69;5059139;28;20877;-63
2022/01/20 05:50:32;;;;;;;3.33;3.03;;;;;;;2.69;100.00;97403.88;5070480;28;20456;-63
2022/01/20 05:52:57;;;;;;;3.87;3.00;;;;;;;2.71;100.00;97395.00;5063883;28;20937;-63
2022/01/20 05:55:23;;;;;;;3.38;3.10;;;;;;;2.75;100.00;97385.13;5061445;28;20391;-64
2022/01/20 05:57:48;;;;;;;3.30;3.00;;;;;;;2.59;100.00;97382.53;5033148;28;20433;-63
2022/01/20 06:00:20;;;;;;;6.20;3.03;;;;;;;2.64;100.00;97391.44;5051175;28;20385;-63
2022/01/20 06:05:31;;;;;;;3.30;3.00;;;;;;;2.63;100.00;97386.41;5069511;28;20399;-63
2022/01/20 06:07:57;;;;;;;3.95;3.20;;;;;;;2.60;100.00;97384.16;5070307;28;20477;-66
2022/01/20 06:10:22;;;;;;;3.10;2.80;;;;;;;2.48;100.00;97384.47;5055653;28;20757;-63
2022/01/20 06:12:47;;;;;;;3.40;3.00;;;;;;;2.60;100.00;97384.16;5070247;28;20991;-63
2022/01/20 06:15:15;;;;;;;3.30;3.00;;;;;;;2.43;100.00;97391.91;5052244;28;20397;-63
2022/01/20 06:17:42;;;;;;;5.03;3.35;;;;;;;2.61;100.00;97393.56;5051086;28;20404;-64
2022/01/20 06:20:10;;;;;;;3.17;2.83;;;;;;;2.51;100.00;97391.09;5054518;28;20454;-64
2022/01/20 06:22:36;;;;;;;3.63;2.80;;;;;;;2.61;100.00;97383.19;5056148;28;20464;-64
2022/01/20 06:25:02;;;;;;;3.78;2.92;;;;;;;2.33;100.00;97386.09;5074170;28;20502;-65
2022/01/20 06:27:28;;;;;;;3.30;2.78;;;;;;;2.41;100.00;97380.09;5070797;28;20430;-65
2022/01/20 06:29:53;;;;;;;4.50;3.10;;;;;;;2.33;100.00;97374.94;5054187;28;20464;-65
2022/01/20 06:32:19;;;;;;;3.43;3.13;;;;;;;2.29;100.00;97361.50;5070041;28;20474;-65
2022/01/20 06:34:44;;;;;;;4.65;3.00;;;;;;;2.36;100.00;97374.59;5055691;28;20394;-64
2022/01/20 06:37:10;;;;;;;3.80;3.13;;;;;;;2.26;100.00;97379.13;5054282;28;20829;-65
2022/01/20 06:39:35;;;;;;;4.73;3.03;;;;;;;2.46;100.00;97385.59;5062174;28;20419;-64
2022/01/20 06:42:00;;;;;;;3.92;3.47;;;;;;;2.44;100.00;97390.97;5059353;28;20935;-67
2022/01/20 06:44:26;;;;;;;4.23;3.00;;;;;;;2.53;100.00;97391.75;5054078;28;20393;-65
2022/01/20 06:46:51;;;;;;;3.60;3.00;;;;;;;2.42;100.00;97385.13;5054053;28;20547;-65
2022/01/20 06:49:18;;;;;;;3.95;2.85;;;;;;;2.47;100.00;97380.28;5053954;28;20428;-64
2022/01/20 06:51:44;;;;;;;3.97;3.00;;;;;;;2.55;100.00;97389.03;5064935;28;20395;-65
2022/01/20 06:54:10;;;;;;;3.92;3.10;;;;;;;2.73;100.00;97394.84;5073588;28;20884;-65
2022/01/20 06:56:36;;;;;;;3.93;3.00;;;;;;;2.71;100.00;97400.19;5072361;28;20399;-65
2022/01/20 06:59:02;;;;;;;2.92;2.70;;;;;;;2.51;100.00;97404.84;5057267;28;20407;-66
2022/01/20 07:01:27;;;;;;;3.00;2.50;;;;;;;2.47;100.00;97406.16;5073324;28;20762;-65
2022/01/20 07:03:52;;;;;;;2.80;2.60;;;;;;;2.54;100.00;97408.91;5073083;28;20462;-66
2022/01/20 07:06:18;;;;;;;2.80;2.50;;;;;;;2.59;100.00;97396.28;5055602;28;20407;-65
2022/01/20 07:08:43;;;;;;;3.87;2.50;;;;;;;2.80;100.00;97401.78;5071485;28;20435;-66
2022/01/20 07:11:08;;;;;;;2.65;2.53;;;;;;;2.67;100.00;97392.91;5057285;28;20395;-66
2022/01/20 07:13:35;;;;;;;2.70;2.50;;;;;;;2.61;100.00;97398.72;5053512;28;20389;-66
2022/01/20 07:16:02;;;;;;;2.85;2.42;;;;;;;2.48;100.00;97410.34;5065265;28;20384;-66
2022/01/20 07:18:27;;;;;;;2.60;2.40;;;;;;;2.38;100.00;97406.31;5057624;28;20870;-65
2022/01/20 07:20:53;;;;;;;3.47;2.50;;;;;;;2.27;100.00;97419.53;5053719;28;20498;-66
2022/01/20 07:23:19;;;;;;;3.22;2.40;;;;;;;2.13;100.00;97409.78;5053594;28;20390;-65
2022/01/20 07:25:44;;;;;;;3.90;2.70;;;;;;;2.28;100.00;97410.81;5053298;28;20829;-66
2022/01/20 07:28:09;;;;;;;3.40;3.10;;;;;;;2.04;100.00;97411.56;5069842;28;20460;-66
2022/01/20 07:30:35;;;;;;;3.83;2.70;;;;;;;2.18;100.00;97410.13;5071905;28;20784;-66
2022/01/20 07:33:03;;;;;;;3.33;2.70;;;;;;;2.25;100.00;97422.28;5064909;28;20386;-66
2022/01/20 07:35:29;;;;;;;3.75;3.00;;;;;;;2.29;100.00;97430.50;5053073;28;20433;-66
2022/01/20 07:37:55;;;;;;;3.63;2.80;;;;;;;2.23;100.00;97418.25;5067923;28;20395;-67
2022/01/20 07:40:21;;;;;;;5.27;3.67;;;;;;;3.35;100.00;97417.41;5071231;28;20423;-74
2022/01/20 07:42:46;;;;;;;2.57;2.30;;;;;;;2.87;100.00;97426.06;5071103;28;20404;-68
2022/01/20 07:45:12;;;;;;;3.17;2.50;;;;;;;2.53;100.00;97437.50;5072796;28;20518;-66
2022/01/20 07:47:37;;;;;;;3.00;2.70;;;;;;;2.50;100.00;97433.50;5059460;28;20566;-65
2022/01/20 07:50:03;;;;;;;4.15;2.60;;;;;;;2.28;100.00;97440.06;5035103;28;20394;-67
2022/01/20 07:52:29;;;;;;;5.82;2.72;;;;;;;2.21;100.00;97459.78;5046579;28;20395;-66
2022/01/20 07:54:54;;;;;;;5.77;2.80;;;;;;;2.31;100.00;97459.63;5072602;28;20783;-67
2022/01/20 07:57:20;;;;;;;5.27;3.17;;;;;;;2.45;100.00;97459.03;5062494;28;20404;-66
2022/01/20 07:59:45;;;;;;;4.18;2.45;;;;;;;2.58;99.63;97450.78;5067686;28;20484;-66
2022/01/20 08:02:11;;;;;;;5.20;2.80;;;;;;;2.54;98.69;97462.44;5071719;28;20880;-66
2022/01/20 08:04:37;;;;;;;5.38;3.10;;;;;;;2.68;98.54;97465.19;5071826;28;20467;-66
2022/01/20 08:07:02;;;;;;;5.90;3.03;;;;;;;2.60;97.66;97462.59;5054143;28;20891;-66
2022/01/20 08:09:28;;;;;;;11.07;4.77;;;;;;;2.64;97.93;97463.06;5057995;28;20405;-66
2022/01/20 08:11:53;;;;;;;5.33;3.27;;;;;;;2.69;97.10;97463.41;5067990;28;20415;-67
2022/01/20 08:14:18;;;;;;;5.40;3.30;;;;;;;2.65;97.01;97468.09;5065956;28;20903;-66
2022/01/20 08:16:44;;;;;;;6.67;3.10;;;;;;;2.72;96.31;97466.50;5052546;28;20484;-66
2022/01/20 08:19:09;;;;;;;6.55;3.58;;;;;;;2.80;95.89;97466.50;5053328;28;20505;-66
2022/01/20 08:21:34;;;;;;;6.17;3.00;;;;;;;2.73;96.48;97468.09;5054356;28;20393;-66
2022/01/20 08:24:00;;;;;;;7.13;3.20;;;;;;;2.87;96.25;97467.47;5053447;28;20436;-66
2022/01/20 08:26:25;;;;;;;8.27;3.00;;;;;;;2.92;95.62;97469.56;5068122;28;20453;-66
2022/01/20 08:28:51;;;;;;;6.63;3.20;;;;;;;2.87;94.81;97472.66;5071380;28;20383;-66
2022/01/20 08:31:16;;;;;;;3.80;2.23;;;;;;;2.90;95.39;97482.66;5073112;28;20822;-66
2022/01/20 08:33:42;;;;;;;7.53;3.03;;;;;;;2.98;95.00;97481.06;5072895;28;20192;-66
2022/01/20 08:36:07;;;;;;;3.80;2.77;;;;;;;2.84;94.24;97479.94;5072711;28;20200;-67
2022/01/20 08:38:33;;;;;;;7.40;2.40;;;;;;;2.79;95.46;97482.16;5059925;28;20231;-66
2022/01/20 08:40:58;;;;;;;3.47;2.77;;;;;;;2.83;94.77;97473.94;5072413;28;20178;-67
2022/01/20 08:43:24;;;;;;;4.03;2.70;;;;;;;2.82;94.54;97472.31;5072413;28;20193;-66
2022/01/20 08:45:49;;;;;;;8.30;2.80;;;;;;;2.81;94.56;97478.47;5055702;28;20184;-66
2022/01/20 08:48:15;;;;;;;4.83;2.97;;;;;;;2.87;94.51;97480.41;5052778;28;20663;-66
2022/01/20 08:50:43;;;;;;;10.87;3.10;;;;;;;2.89;93.29;97488.03;5052757;28;20592;-66
2022/01/20 08:53:10;;;;;;;4.90;2.80;;;;;;;2.90;93.54;97489.63;5053026;28;20265;-66
2022/01/20 08:55:37;;;;;;;5.77;2.80;;;;;;;2.92;92.82;97492.88;5066560;28;20189;-67
2022/01/20 08:58:03;;;;;;;5.73;2.97;;;;;;;2.94;92.72;97496.13;5054621;28;20594;-66
2022/01/20 09:00:30;;;;;;;5.07;2.63;;;;;;;2.84;92.57;97516.97;5072405;28;20234;-66
2022/01/20 09:02:56;;;;;;;6.90;2.97;;;;;;;2.79;93.19;97523.59;5069488;28;20692;-66
2022/01/20 09:05:22;;;;;;;7.97;3.27;;;;;;;2.92;92.61;97522.16;5069219;28;20173;-66
2022/01/20 09:07:47;;;;;;;7.83;2.53;;;;;;;2.95;92.67;97530.59;5056850;28;20209;-67
2022/01/20 09:10:20;;;;;;;5.93;2.90;;;;;;;2.99;92.32;97519.75;5070948;28;20181;-67
2022/01/20 09:15:35;;;;;;;5.10;2.77;;;;;;;3.06;91.72;97538.03;5072460;28;20177;-66
2022/01/20 09:18:04;;;;;;;3.03;2.70;;;;;;;3.16;90.95;97529.16;5072556;28;20646;-66
2022/01/20 09:20:30;;;;;;;5.17;2.80;;;;;;;3.43;91.25;97530.59;5072677;28;20181;-67
2022/01/20 09:22:56;;;;;;;6.57;2.67;;;;;;;3.39;89.93;97534.50;5072498;28;20205;-66
2022/01/20 09:25:23;;;;;;;3.27;2.27;;;;;;;3.37;90.42;97526.06;5054621;28;20186;-67
2022/01/20 09:27:50;;;;;;;4.63;2.63;;;;;;;3.58;89.73;97512.59;5054405;28;20663;-67
2022/01/20 09:30:18;;;;;;;8.50;3.30;;;;;;;3.44;90.03;97516.66;5062826;28;20194;-66
2022/01/20 09:32:56;;;;;;;3.47;2.67;;;;;;;3.62;90.07;97516.50;5053241;28;20195;-66
2022/01/20 09:35:22;;;;;;;6.20;2.90;;;;;;;3.42;90.83;97528.97;5034574;28;20526;-66
2022/01/20 09:37:47;;;;;;;6.37;3.03;;;;;;;3.51;90.21;97529.78;5052172;28;20196;-66
2022/01/20 09:40:12;;;;;;;7.37;2.90;;;;;;;3.58;89.57;97530.72;5052529;28;20238;-69
2022/01/20 09:42:38;;;;;;;4.27;2.30;;;;;;;3.78;88.35;97526.81;5035436;28;20250;-66
2022/01/20 09:45:04;;;;;;;7.80;2.80;;;;;;;3.87;87.94;97528.41;5034618;28;20190;-66
2022/01/20 09:47:29;;;;;;;7.33;3.00;;;;;;;3.94;87.99;97524.19;5054302;28;20343;-66
2022/01/20 09:49:55;;;;;;;6.37;2.20;;;;;;;4.03;87.94;97525.75;5052670;28;20220;-66
2022/01/20 09:52:22;;;;;;;8.90;2.70;;;;;;;3.99;87.02;97527.09;5065150;28;20226;-66
2022/01/20 09:54:47;;;;;;;3.10;2.37;;;;;;;4.05;87.71;97523.81;5056470;28;20204;-68
2022/01/20 09:57:13;;;;;;;15.60;2.87;;;;;;;4.08;86.56;97523.47;5071733;28;20653;-66
2022/01/20 09:59:38;;;;;;;8.40;2.63;;;;;;;3.90;86.54;97522.88;5039347;28;20189;-66
2022/01/20 10:02:09;;;;;;;6.30;2.83;;;;;;;4.00;86.28;97509.75;5065036;28;20181;-65
2022/01/20 10:04:35;;;;;;;6.47;2.50;;;;;;;4.01;86.30;97514.75;5075754;28;20174;-65
2022/01/20 10:07:19;;;;;;;4.23;2.67;;;;;;;4.10;86.55;97521.53;5060818;28;20597;-65
2022/01/20 10:09:47;;;;;;;9.97;2.90;;;;;;;4.18;86.12;97536.25;5069036;28;20173;-65
2022/01/20 10:12:18;;;;;;;5.37;2.40;;;;;;;3.97;85.70;97538.59;5074908;28;20181;-65
2022/01/20 10:14:46;;;;;;;4.97;2.60;;;;;;;3.92;87.24;97540.88;5075766;28;20162;-65
2022/01/20 10:17:22;;;;;;;3.40;2.50;;;;;;;3.73;87.38;97542.84;5067183;28;20235;-65
2022/01/20 10:19:52;;;;;;;9.90;2.80;;;;;;;3.83;88.51;97534.91;5057908;28;20177;-65
2022/01/20 10:22:24;;;;;;;8.60;3.20;;;;;;;3.80;87.71;97537.81;5055574;28;20642;-65
2022/01/20 10:25:08;;;;;;;3.83;2.60;;;;;;;3.82;86.70;97543.66;5065137;28;20500;-65
2022/01/20 10:27:45;;;;;;;4.87;2.23;;;;;;;3.84;87.27;97535.72;5069398;28;20205;-65
2022/01/20 10:30:11;;;;;;;9.60;2.93;;;;;;;3.79;87.86;97543.19;5075264;28;20173;-66
2022/01/20 10:32:47;;;;;;;7.17;2.70;;;;;;;3.61;87.17;97551.16;5074528;28;20646;-66
2022/01/20 10:35:15;;;;;;;8.63;2.60;;;;;;;3.70;87.03;97548.38;5057136;28;20188;-65
2022/01/20 10:37:59;;;;;;;5.57;2.70;;;;;;;3.73;87.28;97545.44;5073613;28;20189;-66
2022/01/20 10:40:24;;;;;;;3.97;2.23;;;;;;;3.89;86.62;97541.22;5056269;28;20229;-66
2022/01/20 10:42:50;;;;;;;10.77;2.43;;;;;;;4.12;85.28;97527.34;5073048;28;20604;-66
2022/01/20 10:45:29;;;;;;;7.77;2.70;;;;;;;3.99;84.71;97528.88;5058207;28;20190;-68
2022/01/20 10:47:57;;;;;;;4.60;2.40;;;;;;;3.82;84.41;97520.31;5065524;28;20197;-65
2022/01/20 10:50:30;;;;;;;7.87;2.20;;;;;;;3.89;85.00;97531.66;5060277;28;20186;-65
2022/01/20 10:52:56;;;;;;;6.53;2.47;;;;;;;3.96;85.06;97527.41;5057089;28;20188;-66
2022/01/20 10:55:34;;;;;;;6.20;2.20;;;;;;;4.02;84.22;97533.72;5052276;28;20186;-66
2022/01/20 10:58:22;;;;;;;9.50;2.80;;;;;;;4.05;84.34;97530.78;5060082;28;20212;-65
2022/01/20 11:00:50;;;;;;;6.47;3.13;;;;;;;4.28;82.94;97517.91;5066071;28;20185;-66
2022/01/20 11:03:17;;;;;;;3.67;2.80;;;;;;;4.54;82.15;97521.81;5056956;28;20201;-66
2022/01/20 11:05:48;;;;;;;5.40;2.67;;;;;;;4.64;81.32;97518.19;5036273;28;20277;-66
2022/01/20 11:08:13;;;;;;;5.03;2.50;;;;;;;4.27;82.09;97516.28;5069366;28;20654;-65
2022/01/20 11:10:41;;;;;;;3.37;2.23;;;;;;;4.13;81.79;97513.41;5055900;28;20192;-66
2022/01/20 11:13:07;;;;;;;7.30;2.83;;;;;;;4.14;83.22;97516.81;5069386;28;20272;-66
2022/01/20 11:15:33;;;;;;;3.57;2.80;;;;;;;4.27;82.04;97509.31;5054846;28;20178;-66
2022/01/20 11:17:58;;;;;;;5.10;2.50;;;;;;;4.28;81.93;97515.31;5069149;28;20250;-66
2022/01/20 11:20:30;;;;;;;13.23;5.43;;;;;;;4.04;82.57;97508.41;5063918;28;20178;-66
2022/01/20 11:23:04;;;;;;;13.83;5.60;;;;;;;4.00;83.42;97509.75;5061560;28;20176;-66
2022/01/20 11:25:37;;;;;;;6.20;2.67;;;;;;;3.83;84.13;97500.38;5056006;28;20641;-66
2022/01/20 11:28:08;;;;;;;6.40;2.60;;;;;;;3.63;84.73;97500.75;5057571;28;20202;-66
2022/01/20 11:30:35;;;;;;;5.17;2.50;;;;;;;3.70;84.51;97499.13;5062622;28;20274;-66
2022/01/20 11:33:09;;;;;;;4.57;3.00;;;;;;;3.64;84.33;97502.38;5062076;28;20185;-65
2022/01/20 11:35:46;;;;;;;4.70;2.80;;;;;;;3.87;84.93;97504.25;5061928;28;20182;-65
2022/01/20 11:38:17;;;;;;;3.23;2.70;;;;;;;3.61;84.66;97491.53;5054264;28;20189;-66
2022/01/20 11:40:58;;;;;;;8.43;2.60;;;;;;;3.90;83.63;97498.75;5054184;28;20178;-66
2022/01/20 11:43:52;;;;;;;4.53;2.70;;;;;;;3.97;83.45;97479.75;5065304;28;20173;-65
2022/01/20 11:46:22;;;;;;;4.53;2.83;;;;;;;3.87;83.80;97484.31;5073563;28;20239;-64
2022/01/20 11:49:02;;;;;;;4.83;2.57;;;;;;;4.18;81.91;97463.59;5071786;28;20209;-66
2022/01/20 11:51:41;;;;;;;7.03;2.40;;;;;;;3.93;82.39;97459.50;5063671;28;20516;-65
2022/01/20 11:54:07;;;;;;;5.47;2.47;;;;;;;4.06;81.98;97459.78;5054039;28;20212;-68
2022/01/20 11:56:39;;;;;;;6.93;2.50;;;;;;;4.14;82.57;97457.97;5060364;28;20238;-66
2022/01/20 11:59:07;;;;;;;5.77;2.67;;;;;;;4.49;81.38;97450.63;5044619;28;20582;-66
2022/01/20 12:01:52;;;;;;;4.37;2.60;;;;;;;4.33;81.87;97435.97;5065298;28;20250;-69
2022/01/20 12:04:29;;;;;;;7.13;3.00;;;;;;;4.40;81.97;97449.09;5070378;28;20208;-66
2022/01/20 12:06:54;;;;;;;5.17;2.30;;;;;;;4.52;80.77;97438.13;5065578;28;20569;-66
2022/01/20 12:09:31;;;;;;;7.47;2.50;;;;;;;4.50;79.20;97445.28;5072761;28;20177;-66
2022/01/20 12:11:57;;;;;;;4.07;2.33;;;;;;;4.49;78.63;97445.44;5062167;28;20273;-66
2022/01/20 12:14:36;;;;;;;4.97;2.30;;;;;;;4.76;77.51;97442.34;5059223;28;20256;-66
2022/01/20 12:17:16;;;;;;;4.30;2.20;;;;;;;4.75;77.59;97447.69;5069690;28;20197;-66
2022/01/20 12:19:47;;;;;;;6.87;2.47;;;;;;;4.89;77.15;97442.56;5053385;28;20178;-67
2022/01/20 12:22:12;;;;;;;5.97;2.33;;;;;;;4.43;78.26;97446.13;5053429;28;20166;-66
2022/01/20 12:24:52;;;;;;;3.70;1.87;;;;;;;4.41;78.12;97458.47;5065755;28;20189;-66
2022/01/20 12:27:19;;;;;;;5.63;2.20;;;;;;;4.28;78.07;97453.84;5062629;28;20270;-66
2022/01/20 12:29:45;;;;;;;6.57;2.10;;;;;;;3.99;79.70;97457.06;5052747;28;20280;-66
2022/01/20 12:32:16;;;;;;;2.93;2.30;;;;;;;3.92;80.30;97456.13;5061682;28;20187;-66
2022/01/20 12:34:41;;;;;;;3.87;1.90;;;;;;;3.56;81.45;97481.66;5072679;28;20196;-66
2022/01/20 12:37:08;;;;;;;2.07;1.37;;;;;;;2.45;85.28;97487.47;5071456;28;20185;-67
2022/01/20 12:39:36;;;;;;;3.57;1.90;;;;;;;1.84;91.30;97495.50;5056314;28;20229;-66
2022/01/20 12:42:09;;;;;;;2.33;1.77;;;;;;;1.76;92.97;97506.59;5072681;28;20653;-66
2022/01/20 12:44:47;;;;;;;4.73;1.83;;;;;;;1.11;97.89;97510.53;5060652;28;20183;-67
2022/01/20 12:47:17;;;;;;;3.92;2.08;;;;;;;1.01;100.00;97517.53;5051615;28;20405;-67
2022/01/20 12:49:43;;;;;;;3.90;2.03;;;;;;;1.06;100.00;97528.25;5055792;28;20398;-67
2022/01/20 12:52:09;;;;;;;7.33;1.80;;;;;;;0.73;100.00;97529.69;5061393;28;20236;-67
2022/01/20 12:54:35;;;;;;;4.03;1.92;;;;;;;0.66;100.00;97539.81;5064924;28;20404;-66